sensor_id;sensor_type;location;lat;lon;timestamp;P1;durP1;ratioP1;P2;durP2;ratioP2
64887;SDS011;51386;53.082;8.816;2023-05-10T00:00:55;4.73;;;2.70;;
64887;SDS011;51386;53.082;8.816;2023-05-10T00:03:21;4.60;;;2.50;;
64887;SDS011;51386;53.082;8.816;2023-05-10T00:05:49;2.77;;;2.57;;
64887;SDS011;51386;53.082;8.816;2023-05-10T00:08:16;3.60;;;2.50;;
64887;SDS011;51386;53.082;8.816;2023-05-10T00:10:44;2.70;;;2.50;;
64887;SDS011;51386;53.082;8.816;2023-05-10T00:13:11;3.80;;;2.53;;
64887;SDS011;51386;53.082;8.816;2023-05-10T00:15:38;4.37;;;2.20;;
64887;SDS011;51386;53.082;8.816;2023-05-10T00:18:05;3.00;;;2.40;;
64887;SDS011;51386;53.082;8.816;2023-05-10T00:20:32;4.53;;;2.63;;
64887;SDS011;51386;53.082;8.816;2023-05-10T00:22:59;3.00;;;2.10;;
64887;SDS011;51386;53.082;8.816;2023-05-10T00:25:26;3.43;;;2.10;;
64887;SDS011;51386;53.082;8.816;2023-05-10T00:27:54;5.00;;;2.40;;
64887;SDS011;51386;53.082;8.816;2023-05-10T00:30:23;2.50;;;2.27;;
64887;SDS011;51386;53.082;8.816;2023-05-10T00:32:50;2.63;;;2.37;;
64887;SDS011;51386;53.082;8.816;2023-05-10T00:35:18;3.50;;;2.20;;
64887;SDS011;51386;53.082;8.816;2023-05-10T00:37:45;2.13;;;2.03;;
64887;SDS011;51386;53.082;8.816;2023-05-10T00:40:12;2.60;;;2.40;;
64887;SDS011;51386;53.082;8.816;2023-05-10T00:42:40;3.47;;;2.10;;
64887;SDS011;51386;53.082;8.816;2023-05-10T00:45:09;4.63;;;4.23;;
64887;SDS011;51386;53.082;8.816;2023-05-10T00:47:36;4.13;;;2.77;;
64887;SDS011;51386;53.082;8.816;2023-05-10T00:50:03;3.17;;;2.70;;
64887;SDS011;51386;53.082;8.816;2023-05-10T00:52:32;4.77;;;2.73;;
64887;SDS011;51386;53.082;8.816;2023-05-10T00:54:59;4.20;;;2.47;;
64887;SDS011;51386;53.082;8.816;2023-05-10T00:57:27;6.10;;;2.83;;
64887;SDS011;51386;53.082;8.816;2023-05-10T00:59:54;4.30;;;2.90;;
64887;SDS011;51386;53.082;8.816;2023-05-10T01:02:22;4.20;;;3.17;;
64887;SDS011;51386;53.082;8.816;2023-05-10T01:04:50;3.03;;;2.77;;
64887;SDS011;51386;53.082;8.816;2023-05-10T01:07:18;3.47;;;2.57;;
64887;SDS011;51386;53.082;8.816;2023-05-10T01:09:45;3.80;;;2.60;;
64887;SDS011;51386;53.082;8.816;2023-05-10T01:12:12;2.53;;;2.33;;
64887;SDS011;51386;53.082;8.816;2023-05-10T01:14:39;2.93;;;2.60;;
64887;SDS011;51386;53.082;8.816;2023-05-10T01:17:06;2.60;;;2.27;;
64887;SDS011;51386;53.082;8.816;2023-05-10T01:19:37;4.60;;;2.47;;
64887;SDS011;51386;53.082;8.816;2023-05-10T01:22:06;3.83;;;2.60;;
64887;SDS011;51386;53.082;8.816;2023-05-10T01:25:06;2.83;;;2.63;;
64887;SDS011;51386;53.082;8.816;2023-05-10T01:28:07;3.30;;;2.83;;
64887;SDS011;51386;53.082;8.816;2023-05-10T01:31:13;2.60;;;2.37;;
64887;SDS011;51386;53.082;8.816;2023-05-10T01:33:57;2.80;;;2.60;;
64887;SDS011;51386;53.082;8.816;2023-05-10T01:36:32;3.53;;;2.80;;
64887;SDS011;51386;53.082;8.816;2023-05-10T01:39:09;3.83;;;2.87;;
64887;SDS011;51386;53.082;8.816;2023-05-10T01:41:45;4.20;;;3.03;;
64887;SDS011;51386;53.082;8.816;2023-05-10T01:44:23;7.33;;;2.67;;
64887;SDS011;51386;53.082;8.816;2023-05-10T01:47:04;4.40;;;3.43;;
64887;SDS011;51386;53.082;8.816;2023-05-10T01:49:37;8.23;;;3.17;;
64887;SDS011;51386;53.082;8.816;2023-05-10T01:52:10;5.10;;;3.27;;
64887;SDS011;51386;53.082;8.816;2023-05-10T01:54:42;6.57;;;2.90;;
64887;SDS011;51386;53.082;8.816;2023-05-10T01:57:20;2.87;;;2.67;;
64887;SDS011;51386;53.082;8.816;2023-05-10T01:59:53;4.63;;;3.33;;
64887;SDS011;51386;53.082;8.816;2023-05-10T02:02:23;4.33;;;3.03;;
64887;SDS011;51386;53.082;8.816;2023-05-10T02:04:55;4.17;;;3.23;;
64887;SDS011;51386;53.082;8.816;2023-05-10T02:07:23;4.43;;;3.10;;
64887;SDS011;51386;53.082;8.816;2023-05-10T02:09:53;3.03;;;2.60;;
64887;SDS011;51386;53.082;8.816;2023-05-10T02:12:21;4.03;;;2.77;;
64887;SDS011;51386;53.082;8.816;2023-05-10T02:14:50;5.73;;;2.87;;
64887;SDS011;51386;53.082;8.816;2023-05-10T02:17:19;3.37;;;2.80;;
64887;SDS011;51386;53.082;8.816;2023-05-10T02:19:49;2.93;;;2.73;;
64887;SDS011;51386;53.082;8.816;2023-05-10T02:22:19;4.63;;;3.10;;
64887;SDS011;51386;53.082;8.816;2023-05-10T02:24:48;4.13;;;2.77;;
64887;SDS011;51386;53.082;8.816;2023-05-10T02:27:17;5.13;;;2.83;;
64887;SDS011;51386;53.082;8.816;2023-05-10T02:29:46;2.90;;;2.60;;
64887;SDS011;51386;53.082;8.816;2023-05-10T02:32:16;4.27;;;3.10;;
64887;SDS011;51386;53.082;8.816;2023-05-10T02:34:44;3.60;;;3.30;;
64887;SDS011;51386;53.082;8.816;2023-05-10T02:37:18;4.73;;;3.40;;
64887;SDS011;51386;53.082;8.816;2023-05-10T02:39:47;2.83;;;2.63;;
64887;SDS011;51386;53.082;8.816;2023-05-10T02:42:18;3.27;;;2.93;;
64887;SDS011;51386;53.082;8.816;2023-05-10T02:44:53;4.23;;;3.60;;
64887;SDS011;51386;53.082;8.816;2023-05-10T02:47:25;3.03;;;2.83;;
64887;SDS011;51386;53.082;8.816;2023-05-10T02:49:52;3.73;;;3.10;;
64887;SDS011;51386;53.082;8.816;2023-05-10T02:52:22;4.00;;;3.30;;
64887;SDS011;51386;53.082;8.816;2023-05-10T02:54:54;4.27;;;3.13;;
64887;SDS011;51386;53.082;8.816;2023-05-10T02:57:28;8.60;;;3.00;;
64887;SDS011;51386;53.082;8.816;2023-05-10T03:00:00;4.40;;;3.23;;
64887;SDS011;51386;53.082;8.816;2023-05-10T03:02:30;6.33;;;4.00;;
64887;SDS011;51386;53.082;8.816;2023-05-10T03:04:57;4.27;;;3.10;;
64887;SDS011;51386;53.082;8.816;2023-05-10T03:07:26;3.10;;;2.80;;
64887;SDS011;51386;53.082;8.816;2023-05-10T03:09:53;3.80;;;2.97;;
64887;SDS011;51386;53.082;8.816;2023-05-10T03:12:22;4.37;;;3.50;;
64887;SDS011;51386;53.082;8.816;2023-05-10T03:15:00;3.60;;;3.30;;
64887;SDS011;51386;53.082;8.816;2023-05-10T03:17:41;4.33;;;3.17;;
64887;SDS011;51386;53.082;8.816;2023-05-10T03:20:20;3.93;;;2.97;;
64887;SDS011;51386;53.082;8.816;2023-05-10T03:22:55;5.27;;;3.10;;
64887;SDS011;51386;53.082;8.816;2023-05-10T03:25:37;3.53;;;3.23;;
64887;SDS011;51386;53.082;8.816;2023-05-10T03:28:06;3.57;;;3.03;;
64887;SDS011;51386;53.082;8.816;2023-05-10T03:30:35;5.07;;;3.23;;
64887;SDS011;51386;53.082;8.816;2023-05-10T03:33:06;5.87;;;3.20;;
64887;SDS011;51386;53.082;8.816;2023-05-10T03:35:33;4.50;;;3.13;;
64887;SDS011;51386;53.082;8.816;2023-05-10T03:38:01;4.80;;;3.10;;
64887;SDS011;51386;53.082;8.816;2023-05-10T03:40:28;5.67;;;2.83;;
64887;SDS011;51386;53.082;8.816;2023-05-10T03:42:57;3.63;;;3.33;;
64887;SDS011;51386;53.082;8.816;2023-05-10T03:45:24;4.40;;;3.10;;
64887;SDS011;51386;53.082;8.816;2023-05-10T03:47:51;4.67;;;3.40;;
64887;SDS011;51386;53.082;8.816;2023-05-10T03:50:18;4.07;;;3.50;;
64887;SDS011;51386;53.082;8.816;2023-05-10T03:52:45;4.03;;;3.60;;
64887;SDS011;51386;53.082;8.816;2023-05-10T03:55:14;4.63;;;3.20;;
64887;SDS011;51386;53.082;8.816;2023-05-10T03:57:41;4.27;;;3.60;;
64887;SDS011;51386;53.082;8.816;2023-05-10T04:00:08;4.20;;;3.80;;
64887;SDS011;51386;53.082;8.816;2023-05-10T04:02:36;4.10;;;3.60;;
64887;SDS011;51386;53.082;8.816;2023-05-10T04:05:04;8.87;;;3.67;;
64887;SDS011;51386;53.082;8.816;2023-05-10T04:07:31;5.33;;;3.77;;
64887;SDS011;51386;53.082;8.816;2023-05-10T04:09:58;4.07;;;3.67;;
64887;SDS011;51386;53.082;8.816;2023-05-10T04:12:26;4.53;;;4.00;;
64887;SDS011;51386;53.082;8.816;2023-05-10T04:14:53;5.17;;;4.13;;
64887;SDS011;51386;53.082;8.816;2023-05-10T04:17:20;4.17;;;3.87;;
64887;SDS011;51386;53.082;8.816;2023-05-10T04:19:47;4.10;;;3.60;;
64887;SDS011;51386;53.082;8.816;2023-05-10T04:22:14;4.50;;;3.67;;
64887;SDS011;51386;53.082;8.816;2023-05-10T04:24:42;4.50;;;3.73;;
64887;SDS011;51386;53.082;8.816;2023-05-10T04:27:09;4.10;;;3.37;;
64887;SDS011;51386;53.082;8.816;2023-05-10T04:29:37;5.23;;;3.70;;
64887;SDS011;51386;53.082;8.816;2023-05-10T04:32:04;3.90;;;3.60;;
64887;SDS011;51386;53.082;8.816;2023-05-10T04:34:31;7.60;;;3.80;;
64887;SDS011;51386;53.082;8.816;2023-05-10T04:37:00;3.97;;;3.67;;
64887;SDS011;51386;53.082;8.816;2023-05-10T04:39:27;5.80;;;3.73;;
64887;SDS011;51386;53.082;8.816;2023-05-10T04:41:54;4.30;;;3.90;;
64887;SDS011;51386;53.082;8.816;2023-05-10T04:44:20;8.50;;;4.13;;
64887;SDS011;51386;53.082;8.816;2023-05-10T04:46:49;5.10;;;4.20;;
64887;SDS011;51386;53.082;8.816;2023-05-10T04:49:16;8.57;;;4.00;;
64887;SDS011;51386;53.082;8.816;2023-05-10T04:51:43;6.27;;;4.20;;
64887;SDS011;51386;53.082;8.816;2023-05-10T04:54:10;8.50;;;4.10;;
64887;SDS011;51386;53.082;8.816;2023-05-10T04:56:37;5.17;;;4.00;;
64887;SDS011;51386;53.082;8.816;2023-05-10T04:59:04;4.63;;;4.00;;
64887;SDS011;51386;53.082;8.816;2023-05-10T05:01:31;5.10;;;4.00;;
64887;SDS011;51386;53.082;8.816;2023-05-10T05:04:00;5.47;;;4.80;;
64887;SDS011;51386;53.082;8.816;2023-05-10T05:06:27;6.70;;;5.10;;
64887;SDS011;51386;53.082;8.816;2023-05-10T05:08:54;7.07;;;4.60;;
64887;SDS011;51386;53.082;8.816;2023-05-10T05:11:21;4.90;;;4.40;;
64887;SDS011;51386;53.082;8.816;2023-05-10T05:13:48;6.40;;;5.10;;
64887;SDS011;51386;53.082;8.816;2023-05-10T05:16:15;5.23;;;4.53;;
64887;SDS011;51386;53.082;8.816;2023-05-10T05:18:42;5.80;;;5.07;;
64887;SDS011;51386;53.082;8.816;2023-05-10T05:21:20;7.30;;;4.90;;
64887;SDS011;51386;53.082;8.816;2023-05-10T05:23:47;5.87;;;5.10;;
64887;SDS011;51386;53.082;8.816;2023-05-10T05:26:14;5.73;;;5.23;;
64887;SDS011;51386;53.082;8.816;2023-05-10T05:28:42;5.77;;;5.17;;
64887;SDS011;51386;53.082;8.816;2023-05-10T05:31:09;7.03;;;4.60;;
64887;SDS011;51386;53.082;8.816;2023-05-10T05:33:36;6.03;;;5.00;;
64887;SDS011;51386;53.082;8.816;2023-05-10T05:36:04;5.67;;;4.90;;
64887;SDS011;51386;53.082;8.816;2023-05-10T05:38:33;5.67;;;4.97;;
64887;SDS011;51386;53.082;8.816;2023-05-10T05:41:00;5.53;;;5.03;;
64887;SDS011;51386;53.082;8.816;2023-05-10T05:43:27;5.50;;;4.97;;
64887;SDS011;51386;53.082;8.816;2023-05-10T05:45:54;6.50;;;5.17;;
64887;SDS011;51386;53.082;8.816;2023-05-10T05:48:24;6.30;;;5.10;;
64887;SDS011;51386;53.082;8.816;2023-05-10T05:50:53;6.20;;;5.50;;
64887;SDS011;51386;53.082;8.816;2023-05-10T05:53:22;5.53;;;5.03;;
64887;SDS011;51386;53.082;8.816;2023-05-10T05:55:54;6.67;;;5.80;;
64887;SDS011;51386;53.082;8.816;2023-05-10T05:58:22;5.90;;;5.10;;
64887;SDS011;51386;53.082;8.816;2023-05-10T06:00:50;8.80;;;5.53;;
64887;SDS011;51386;53.082;8.816;2023-05-10T06:03:18;6.13;;;5.53;;
64887;SDS011;51386;53.082;8.816;2023-05-10T06:05:45;7.87;;;6.27;;
64887;SDS011;51386;53.082;8.816;2023-05-10T06:08:14;5.93;;;5.23;;
64887;SDS011;51386;53.082;8.816;2023-05-10T06:10:41;6.57;;;5.97;;
64887;SDS011;51386;53.082;8.816;2023-05-10T06:13:09;7.53;;;5.60;;
64887;SDS011;51386;53.082;8.816;2023-05-10T06:15:37;6.10;;;5.50;;
64887;SDS011;51386;53.082;8.816;2023-05-10T06:18:04;8.27;;;6.37;;
64887;SDS011;51386;53.082;8.816;2023-05-10T06:20:32;9.67;;;5.63;;
64887;SDS011;51386;53.082;8.816;2023-05-10T06:22:59;6.57;;;5.43;;
64887;SDS011;51386;53.082;8.816;2023-05-10T06:25:26;8.07;;;6.13;;
64887;SDS011;51386;53.082;8.816;2023-05-10T06:27:53;8.23;;;6.10;;
64887;SDS011;51386;53.082;8.816;2023-05-10T06:30:25;8.73;;;5.90;;
64887;SDS011;51386;53.082;8.816;2023-05-10T06:32:55;7.43;;;5.73;;
64887;SDS011;51386;53.082;8.816;2023-05-10T06:35:22;7.23;;;6.13;;
64887;SDS011;51386;53.082;8.816;2023-05-10T06:37:49;8.13;;;5.87;;
64887;SDS011;51386;53.082;8.816;2023-05-10T06:40:17;8.83;;;5.70;;
64887;SDS011;51386;53.082;8.816;2023-05-10T06:42:44;5.93;;;5.33;;
64887;SDS011;51386;53.082;8.816;2023-05-10T06:45:13;7.00;;;6.30;;
64887;SDS011;51386;53.082;8.816;2023-05-10T06:47:43;8.77;;;6.53;;
64887;SDS011;51386;53.082;8.816;2023-05-10T06:50:10;7.40;;;6.70;;
64887;SDS011;51386;53.082;8.816;2023-05-10T06:52:38;8.03;;;7.27;;
64887;SDS011;51386;53.082;8.816;2023-05-10T06:55:05;7.07;;;6.37;;
64887;SDS011;51386;53.082;8.816;2023-05-10T06:57:34;7.60;;;6.53;;
64887;SDS011;51386;53.082;8.816;2023-05-10T07:00:01;11.40;;;10.20;;
64887;SDS011;51386;53.082;8.816;2023-05-10T07:02:32;8.90;;;7.83;;
64887;SDS011;51386;53.082;8.816;2023-05-10T07:05:00;6.97;;;6.27;;
64887;SDS011;51386;53.082;8.816;2023-05-10T07:07:29;14.30;;;9.37;;
64887;SDS011;51386;53.082;8.816;2023-05-10T07:09:55;12.27;;;10.97;;
64887;SDS011;51386;53.082;8.816;2023-05-10T07:12:24;8.77;;;6.63;;
64887;SDS011;51386;53.082;8.816;2023-05-10T07:14:51;8.53;;;6.53;;
64887;SDS011;51386;53.082;8.816;2023-05-10T07:17:18;6.27;;;5.57;;
64887;SDS011;51386;53.082;8.816;2023-05-10T07:19:45;6.87;;;5.63;;
64887;SDS011;51386;53.082;8.816;2023-05-10T07:22:13;7.27;;;6.67;;
64887;SDS011;51386;53.082;8.816;2023-05-10T07:24:41;7.10;;;6.50;;
64887;SDS011;51386;53.082;8.816;2023-05-10T07:27:08;6.83;;;6.23;;
64887;SDS011;51386;53.082;8.816;2023-05-10T07:29:35;7.13;;;6.43;;
64887;SDS011;51386;53.082;8.816;2023-05-10T07:32:03;13.60;;;12.20;;
64887;SDS011;51386;53.082;8.816;2023-05-10T07:34:34;7.47;;;6.73;;
64887;SDS011;51386;53.082;8.816;2023-05-10T07:37:01;7.90;;;7.20;;
64887;SDS011;51386;53.082;8.816;2023-05-10T07:39:29;17.43;;;14.73;;
64887;SDS011;51386;53.082;8.816;2023-05-10T07:41:56;9.27;;;8.47;;
64887;SDS011;51386;53.082;8.816;2023-05-10T07:44:23;17.37;;;15.77;;
64887;SDS011;51386;53.082;8.816;2023-05-10T07:46:50;7.73;;;6.93;;
64887;SDS011;51386;53.082;8.816;2023-05-10T07:49:18;7.30;;;6.60;;
64887;SDS011;51386;53.082;8.816;2023-05-10T07:51:45;8.77;;;7.33;;
64887;SDS011;51386;53.082;8.816;2023-05-10T07:54:12;7.20;;;6.60;;
64887;SDS011;51386;53.082;8.816;2023-05-10T07:56:41;6.17;;;5.57;;
64887;SDS011;51386;53.082;8.816;2023-05-10T07:59:14;6.60;;;5.33;;
64887;SDS011;51386;53.082;8.816;2023-05-10T08:01:43;8.17;;;5.63;;
64887;SDS011;51386;53.082;8.816;2023-05-10T08:04:11;5.87;;;5.27;;
64887;SDS011;51386;53.082;8.816;2023-05-10T08:06:38;5.17;;;4.63;;
64887;SDS011;51386;53.082;8.816;2023-05-10T08:09:06;3.97;;;3.60;;
64887;SDS011;51386;53.082;8.816;2023-05-10T08:11:32;3.60;;;3.30;;
64887;SDS011;51386;53.082;8.816;2023-05-10T08:14:04;3.13;;;2.93;;
64887;SDS011;51386;53.082;8.816;2023-05-10T08:16:31;2.87;;;2.67;;
64887;SDS011;51386;53.082;8.816;2023-05-10T08:18:58;3.70;;;3.30;;
64887;SDS011;51386;53.082;8.816;2023-05-10T08:21:26;3.63;;;3.33;;
64887;SDS011;51386;53.082;8.816;2023-05-10T08:23:52;3.67;;;3.37;;
64887;SDS011;51386;53.082;8.816;2023-05-10T08:26:19;4.40;;;3.60;;
64887;SDS011;51386;53.082;8.816;2023-05-10T08:28:47;3.43;;;3.13;;
64887;SDS011;51386;53.082;8.816;2023-05-10T08:31:16;3.70;;;3.10;;
64887;SDS011;51386;53.082;8.816;2023-05-10T08:33:44;3.60;;;3.30;;
64887;SDS011;51386;53.082;8.816;2023-05-10T08:36:17;3.33;;;3.03;;
64887;SDS011;51386;53.082;8.816;2023-05-10T08:38:49;3.63;;;3.33;;
64887;SDS011;51386;53.082;8.816;2023-05-10T08:41:17;4.40;;;3.43;;
64887;SDS011;51386;53.082;8.816;2023-05-10T08:43:47;31.70;;;28.37;;
64887;SDS011;51386;53.082;8.816;2023-05-10T08:46:17;7.93;;;7.13;;
64887;SDS011;51386;53.082;8.816;2023-05-10T08:48:46;4.20;;;3.90;;
64887;SDS011;51386;53.082;8.816;2023-05-10T08:51:17;4.13;;;3.83;;
64887;SDS011;51386;53.082;8.816;2023-05-10T08:53:45;4.07;;;3.77;;
64887;SDS011;51386;53.082;8.816;2023-05-10T08:56:13;3.97;;;3.67;;
64887;SDS011;51386;53.082;8.816;2023-05-10T08:58:42;3.60;;;3.40;;
64887;SDS011;51386;53.082;8.816;2023-05-10T09:01:09;3.50;;;3.20;;
64887;SDS011;51386;53.082;8.816;2023-05-10T09:03:41;3.43;;;2.90;;
64887;SDS011;51386;53.082;8.816;2023-05-10T09:06:09;2.67;;;2.47;;
64887;SDS011;51386;53.082;8.816;2023-05-10T09:08:39;2.53;;;2.33;;
64887;SDS011;51386;53.082;8.816;2023-05-10T09:11:08;2.13;;;1.93;;
64887;SDS011;51386;53.082;8.816;2023-05-10T09:13:36;1.97;;;1.87;;
64887;SDS011;51386;53.082;8.816;2023-05-10T09:16:03;2.30;;;2.10;;
64887;SDS011;51386;53.082;8.816;2023-05-10T09:18:47;2.27;;;1.90;;
64887;SDS011;51386;53.082;8.816;2023-05-10T09:21:15;1.93;;;1.83;;
64887;SDS011;51386;53.082;8.816;2023-05-10T09:23:42;2.53;;;1.90;;
64887;SDS011;51386;53.082;8.816;2023-05-10T09:26:13;2.30;;;2.10;;
64887;SDS011;51386;53.082;8.816;2023-05-10T09:28:49;2.23;;;2.10;;
64887;SDS011;51386;53.082;8.816;2023-05-10T09:31:18;2.93;;;2.30;;
64887;SDS011;51386;53.082;8.816;2023-05-10T09:33:47;2.40;;;2.30;;
64887;SDS011;51386;53.082;8.816;2023-05-10T09:36:16;3.67;;;2.10;;
64887;SDS011;51386;53.082;8.816;2023-05-10T09:38:46;3.00;;;2.50;;
64887;SDS011;51386;53.082;8.816;2023-05-10T09:41:15;2.57;;;2.37;;
64887;SDS011;51386;53.082;8.816;2023-05-10T09:43:44;2.50;;;2.30;;
64887;SDS011;51386;53.082;8.816;2023-05-10T09:46:12;3.10;;;2.90;;
64887;SDS011;51386;53.082;8.816;2023-05-10T09:48:41;3.03;;;2.77;;
64887;SDS011;51386;53.082;8.816;2023-05-10T09:51:15;3.00;;;2.80;;
64887;SDS011;51386;53.082;8.816;2023-05-10T09:53:45;3.47;;;3.20;;
64887;SDS011;51386;53.082;8.816;2023-05-10T09:56:12;3.10;;;2.90;;
64887;SDS011;51386;53.082;8.816;2023-05-10T09:58:40;4.03;;;3.63;;
64887;SDS011;51386;53.082;8.816;2023-05-10T10:01:10;3.70;;;3.40;;
64887;SDS011;51386;53.082;8.816;2023-05-10T10:03:41;5.80;;;3.53;;
64887;SDS011;51386;53.082;8.816;2023-05-10T10:06:09;4.00;;;3.70;;
64887;SDS011;51386;53.082;8.816;2023-05-10T10:08:55;6.23;;;5.73;;
64887;SDS011;51386;53.082;8.816;2023-05-10T10:11:23;4.63;;;4.20;;
64887;SDS011;51386;53.082;8.816;2023-05-10T10:13:50;5.07;;;4.60;;
64887;SDS011;51386;53.082;8.816;2023-05-10T10:16:17;6.17;;;5.57;;
64887;SDS011;51386;53.082;8.816;2023-05-10T10:18:45;3.97;;;3.57;;
64887;SDS011;51386;53.082;8.816;2023-05-10T10:21:14;3.20;;;3.00;;
64887;SDS011;51386;53.082;8.816;2023-05-10T10:23:42;3.03;;;2.17;;
64887;SDS011;51386;53.082;8.816;2023-05-10T10:26:09;2.27;;;2.07;;
64887;SDS011;51386;53.082;8.816;2023-05-10T10:28:39;2.07;;;1.87;;
64887;SDS011;51386;53.082;8.816;2023-05-10T10:31:22;2.03;;;1.80;;
64887;SDS011;51386;53.082;8.816;2023-05-10T10:34:03;2.20;;;2.10;;
64887;SDS011;51386;53.082;8.816;2023-05-10T10:36:40;2.77;;;2.20;;
64887;SDS011;51386;53.082;8.816;2023-05-10T10:39:11;2.67;;;2.33;;
64887;SDS011;51386;53.082;8.816;2023-05-10T10:41:38;3.00;;;2.70;;
64887;SDS011;51386;53.082;8.816;2023-05-10T10:44:25;2.80;;;2.43;;
64887;SDS011;51386;53.082;8.816;2023-05-10T10:47:05;2.60;;;2.33;;
64887;SDS011;51386;53.082;8.816;2023-05-10T10:49:51;3.90;;;2.93;;
64887;SDS011;51386;53.082;8.816;2023-05-10T10:52:34;2.90;;;2.70;;
64887;SDS011;51386;53.082;8.816;2023-05-10T10:55:04;2.63;;;2.43;;
64887;SDS011;51386;53.082;8.816;2023-05-10T10:57:47;3.23;;;2.50;;
64887;SDS011;51386;53.082;8.816;2023-05-10T11:00:17;2.47;;;2.10;;
64887;SDS011;51386;53.082;8.816;2023-05-10T11:02:58;2.80;;;2.60;;
64887;SDS011;51386;53.082;8.816;2023-05-10T11:05:39;3.37;;;2.37;;
64887;SDS011;51386;53.082;8.816;2023-05-10T11:11:03;2.03;;;1.93;;
64887;SDS011;51386;53.082;8.816;2023-05-10T11:13:39;2.17;;;2.00;;
64887;SDS011;51386;53.082;8.816;2023-05-10T11:16:12;3.23;;;1.90;;
64887;SDS011;51386;53.082;8.816;2023-05-10T11:18:54;2.07;;;1.97;;
64887;SDS011;51386;53.082;8.816;2023-05-10T11:21:28;2.40;;;2.20;;
64887;SDS011;51386;53.082;8.816;2023-05-10T11:23:58;2.37;;;2.13;;
64887;SDS011;51386;53.082;8.816;2023-05-10T11:26:32;2.30;;;2.20;;
64887;SDS011;51386;53.082;8.816;2023-05-10T11:29:01;2.27;;;2.07;;
64887;SDS011;51386;53.082;8.816;2023-05-10T11:31:30;5.60;;;2.80;;
64887;SDS011;51386;53.082;8.816;2023-05-10T11:33:58;3.23;;;3.03;;
64887;SDS011;51386;53.082;8.816;2023-05-10T11:36:28;3.23;;;2.93;;
64887;SDS011;51386;53.082;8.816;2023-05-10T11:39:01;3.30;;;3.03;;
64887;SDS011;51386;53.082;8.816;2023-05-10T11:41:30;5.67;;;5.07;;
64887;SDS011;51386;53.082;8.816;2023-05-10T11:43:58;3.10;;;2.80;;
64887;SDS011;51386;53.082;8.816;2023-05-10T11:46:26;4.50;;;2.57;;
64887;SDS011;51386;53.082;8.816;2023-05-10T11:48:57;3.20;;;2.70;;
64887;SDS011;51386;53.082;8.816;2023-05-10T11:51:28;2.73;;;2.50;;
64887;SDS011;51386;53.082;8.816;2023-05-10T11:53:55;3.50;;;2.50;;
64887;SDS011;51386;53.082;8.816;2023-05-10T11:56:24;2.65;;;2.45;;
64887;SDS011;51386;53.082;8.816;2023-05-10T11:58:53;3.47;;;2.47;;
64887;SDS011;51386;53.082;8.816;2023-05-10T12:01:22;1.10;;;1.00;;
64887;SDS011;51386;53.082;8.816;2023-05-10T12:03:50;1.90;;;1.13;;
64887;SDS011;51386;53.082;8.816;2023-05-10T12:06:20;0.87;;;0.87;;
64887;SDS011;51386;53.082;8.816;2023-05-10T12:08:48;3.23;;;2.20;;
64887;SDS011;51386;53.082;8.816;2023-05-10T12:11:19;0.90;;;0.90;;
64887;SDS011;51386;53.082;8.816;2023-05-10T12:13:49;1.23;;;1.10;;
64887;SDS011;51386;53.082;8.816;2023-05-10T12:16:17;1.13;;;1.03;;
64887;SDS011;51386;53.082;8.816;2023-05-10T12:18:47;0.77;;;0.77;;
64887;SDS011;51386;53.082;8.816;2023-05-10T12:21:17;0.80;;;0.80;;
64887;SDS011;51386;53.082;8.816;2023-05-10T12:23:46;4.83;;;1.37;;
64887;SDS011;51386;53.082;8.816;2023-05-10T12:26:16;0.90;;;0.90;;
64887;SDS011;51386;53.082;8.816;2023-05-10T12:28:43;1.33;;;1.07;;
64887;SDS011;51386;53.082;8.816;2023-05-10T12:31:11;0.93;;;0.83;;
64887;SDS011;51386;53.082;8.816;2023-05-10T12:33:39;1.90;;;0.70;;
64887;SDS011;51386;53.082;8.816;2023-05-10T12:36:09;1.40;;;1.30;;
64887;SDS011;51386;53.082;8.816;2023-05-10T12:38:38;1.47;;;0.87;;
64887;SDS011;51386;53.082;8.816;2023-05-10T12:41:09;0.90;;;0.90;;
64887;SDS011;51386;53.082;8.816;2023-05-10T12:43:40;0.77;;;0.70;;
64887;SDS011;51386;53.082;8.816;2023-05-10T12:46:08;0.77;;;0.77;;
64887;SDS011;51386;53.082;8.816;2023-05-10T12:48:38;0.83;;;0.83;;
64887;SDS011;51386;53.082;8.816;2023-05-10T12:51:06;0.90;;;0.90;;
64887;SDS011;51386;53.082;8.816;2023-05-10T12:53:39;2.17;;;1.73;;
64887;SDS011;51386;53.082;8.816;2023-05-10T12:56:10;1.13;;;1.13;;
64887;SDS011;51386;53.082;8.816;2023-05-10T12:58:37;1.10;;;1.00;;
64887;SDS011;51386;53.082;8.816;2023-05-10T13:01:04;1.27;;;1.10;;
64887;SDS011;51386;53.082;8.816;2023-05-10T13:03:32;1.87;;;1.77;;
64887;SDS011;51386;53.082;8.816;2023-05-10T13:06:00;1.77;;;1.67;;
64887;SDS011;51386;53.082;8.816;2023-05-10T13:08:27;1.63;;;1.53;;
64887;SDS011;51386;53.082;8.816;2023-05-10T13:10:58;2.07;;;1.83;;
64887;SDS011;51386;53.082;8.816;2023-05-10T13:13:25;3.30;;;2.00;;
64887;SDS011;51386;53.082;8.816;2023-05-10T13:15:52;2.83;;;2.40;;
64887;SDS011;51386;53.082;8.816;2023-05-10T13:18:19;2.60;;;2.40;;
64887;SDS011;51386;53.082;8.816;2023-05-10T13:20:46;2.83;;;2.57;;
64887;SDS011;51386;53.082;8.816;2023-05-10T13:23:16;3.00;;;2.60;;
64887;SDS011;51386;53.082;8.816;2023-05-10T13:25:43;3.13;;;2.50;;
64887;SDS011;51386;53.082;8.816;2023-05-10T13:28:10;3.80;;;2.70;;
64887;SDS011;51386;53.082;8.816;2023-05-10T13:30:37;3.00;;;2.80;;
64887;SDS011;51386;53.082;8.816;2023-05-10T13:33:04;3.27;;;2.97;;
64887;SDS011;51386;53.082;8.816;2023-05-10T13:35:31;3.17;;;2.57;;
64887;SDS011;51386;53.082;8.816;2023-05-10T13:37:58;3.00;;;2.80;;
64887;SDS011;51386;53.082;8.816;2023-05-10T13:40:26;3.17;;;2.90;;
64887;SDS011;51386;53.082;8.816;2023-05-10T13:42:54;3.33;;;3.03;;
64887;SDS011;51386;53.082;8.816;2023-05-10T13:45:21;2.93;;;2.63;;
64887;SDS011;51386;53.082;8.816;2023-05-10T13:47:48;3.57;;;3.27;;
64887;SDS011;51386;53.082;8.816;2023-05-10T13:50:15;5.47;;;2.60;;
64887;SDS011;51386;53.082;8.816;2023-05-10T13:52:43;2.20;;;2.10;;
64887;SDS011;51386;53.082;8.816;2023-05-10T13:55:10;2.90;;;2.70;;
64887;SDS011;51386;53.082;8.816;2023-05-10T13:57:40;2.43;;;2.30;;
64887;SDS011;51386;53.082;8.816;2023-05-10T14:00:08;2.47;;;2.20;;
64887;SDS011;51386;53.082;8.816;2023-05-10T14:02:36;2.37;;;2.17;;
64887;SDS011;51386;53.082;8.816;2023-05-10T14:05:03;2.70;;;2.50;;
64887;SDS011;51386;53.082;8.816;2023-05-10T14:07:31;2.50;;;2.30;;
64887;SDS011;51386;53.082;8.816;2023-05-10T14:09:58;2.80;;;2.60;;
64887;SDS011;51386;53.082;8.816;2023-05-10T14:12:26;2.10;;;1.90;;
64887;SDS011;51386;53.082;8.816;2023-05-10T14:14:54;2.47;;;2.27;;
64887;SDS011;51386;53.082;8.816;2023-05-10T14:17:21;3.40;;;3.10;;
64887;SDS011;51386;53.082;8.816;2023-05-10T14:19:48;2.90;;;2.70;;
64887;SDS011;51386;53.082;8.816;2023-05-10T14:22:15;2.50;;;2.30;;
64887;SDS011;51386;53.082;8.816;2023-05-10T14:24:42;3.03;;;2.73;;
64887;SDS011;51386;53.082;8.816;2023-05-10T14:27:12;3.07;;;2.77;;
64887;SDS011;51386;53.082;8.816;2023-05-10T14:29:40;3.97;;;2.23;;
64887;SDS011;51386;53.082;8.816;2023-05-10T14:32:08;2.40;;;2.20;;
64887;SDS011;51386;53.082;8.816;2023-05-10T14:34:35;2.63;;;2.43;;
64887;SDS011;51386;53.082;8.816;2023-05-10T14:37:02;2.20;;;2.10;;
64887;SDS011;51386;53.082;8.816;2023-05-10T14:39:30;2.77;;;2.57;;
64887;SDS011;51386;53.082;8.816;2023-05-10T14:41:57;2.70;;;2.50;;
64887;SDS011;51386;53.082;8.816;2023-05-10T14:44:24;2.80;;;2.60;;
64887;SDS011;51386;53.082;8.816;2023-05-10T14:46:52;3.93;;;3.23;;
64887;SDS011;51386;53.082;8.816;2023-05-10T14:49:20;2.87;;;2.67;;
64887;SDS011;51386;53.082;8.816;2023-05-10T14:51:48;3.60;;;2.50;;
64887;SDS011;51386;53.082;8.816;2023-05-10T14:54:15;2.80;;;2.60;;
64887;SDS011;51386;53.082;8.816;2023-05-10T14:56:42;3.13;;;2.80;;
64887;SDS011;51386;53.082;8.816;2023-05-10T14:59:09;3.70;;;3.10;;
64887;SDS011;51386;53.082;8.816;2023-05-10T15:01:37;3.57;;;3.00;;
64887;SDS011;51386;53.082;8.816;2023-05-10T15:04:04;3.97;;;2.40;;